KCTZ/CTZ METAR and TAF weather

Enter ICAO airport designator
Station Type Date Time Source
KCTZ METAR 2019/06/26 15:50 UTC NOAA

KCTZ 261550Z AUTO 06003KT 10SM CLR 24/19 A3012 RMK AO2 T02400190


Station Type Date Time Source
KCTZ Decoded METAR 2019/06/26 15:50 UTC NOAA

Clinton, Sampson County Airport, NC, United States (KCTZ) 34-58-32N 078-21-53W
Jun 26, 2019 - 11:50 AM EDT / 2019.06.26 1550 UTC
Wind: from the ENE (060 degrees) at 3 MPH (3 KT):0
Visibility: 10 mile(s):0
Sky conditions: clear
Temperature: 75.2 F (24.0 C)
Dew Point: 66.2 F (19.0 C)
Relative Humidity: 73%
Pressure (altimeter): 30.12 in. Hg (1019 hPa)
ob: KCTZ 261550Z AUTO 06003KT 10SM CLR 24/19 A3012 RMK AO2 T02400190
cycle: 16

Station Type Date Time Source
KCTZ TAF UTC NOAA

Error!

Example: see airport list